createdAt,value
2022-11-23T00:00:34.984Z,10.05
2022-11-23T00:03:02.842Z,10.02
2022-11-23T00:05:31.140Z,9.82
2022-11-23T00:07:58.974Z,9.98
2022-11-23T00:10:26.878Z,9.82
2022-11-23T00:12:54.732Z,10.00
2022-11-23T00:15:22.602Z,9.85
2022-11-23T00:17:51.811Z,9.68
2022-11-23T00:20:19.727Z,10.07
2022-11-23T00:22:47.575Z,10.05
2022-11-23T00:25:15.601Z,9.73
2022-11-23T00:27:43.500Z,9.50
2022-11-23T00:30:12.562Z,10.07
2022-11-23T00:32:40.400Z,9.80
2022-11-23T00:35:10.158Z,9.82
2022-11-23T00:37:37.998Z,9.90
2022-11-23T00:40:07.252Z,9.27
2022-11-23T00:42:38.033Z,9.38
2022-11-23T00:45:06.883Z,9.23
2022-11-23T00:47:34.794Z,9.55
2022-11-23T00:50:02.961Z,9.23
2022-11-23T00:52:32.174Z,9.60
2022-11-23T00:55:00.048Z,9.43
2022-11-23T00:57:28.041Z,9.40
2022-11-23T00:59:55.884Z,9.68
2022-11-23T01:02:25.842Z,9.85
2022-11-23T01:04:54.707Z,9.52
2022-11-23T01:07:22.640Z,9.73
2022-11-23T01:09:51.976Z,9.10
2022-11-23T01:12:19.830Z,9.35
2022-11-23T01:14:48.648Z,9.02
2022-11-23T01:17:16.546Z,9.27
2022-11-23T01:19:44.484Z,9.32
2022-11-23T01:22:14.803Z,9.25
2022-11-23T01:24:43.535Z,9.32
2022-11-23T01:27:12.760Z,8.95
2022-11-23T01:29:40.622Z,9.00
2022-11-23T01:32:08.425Z,9.40
2022-11-23T01:34:36.499Z,9.05
2022-11-23T01:37:05.743Z,9.20
2022-11-23T01:39:33.907Z,9.30
2022-11-23T01:42:01.953Z,9.60
2022-11-23T01:44:31.923Z,9.77
2022-11-23T01:47:00.606Z,9.30
2022-11-23T01:49:29.553Z,9.35
2022-11-23T01:51:58.531Z,9.77
2022-11-23T01:54:29.226Z,8.95
2022-11-23T01:56:59.851Z,8.85
2022-11-23T01:59:27.757Z,8.95
2022-11-23T02:01:56.992Z,9.90
2022-11-23T02:04:28.289Z,9.00
2022-11-23T02:06:56.180Z,9.52
2022-11-23T02:09:24.109Z,8.60
2022-11-23T02:11:52.853Z,8.95
2022-11-23T02:14:23.532Z,9.43
2022-11-23T02:16:55.826Z,9.15
2022-11-23T02:19:28.787Z,9.32
2022-11-23T02:21:57.975Z,9.13
2022-11-23T02:24:27.644Z,8.95
2022-11-23T02:26:56.887Z,8.68
2022-11-23T02:29:25.568Z,8.88
2022-11-23T02:31:53.451Z,9.05
2022-11-23T02:34:25.059Z,9.40
2022-11-23T02:36:54.576Z,8.68
2022-11-23T02:39:23.460Z,9.30
2022-11-23T02:41:52.102Z,8.00
2022-11-23T02:44:31.722Z,9.52
2022-11-23T02:46:59.666Z,8.93
2022-11-23T02:49:27.552Z,8.48
2022-11-23T02:51:55.381Z,9.52
2022-11-23T02:54:26.724Z,8.60
2022-11-23T02:56:54.633Z,8.82
2022-11-23T02:59:23.886Z,9.43
2022-11-23T03:01:53.430Z,8.90
2022-11-23T03:04:27.388Z,8.82
2022-11-23T03:06:55.869Z,9.13
2022-11-23T03:09:23.851Z,9.00
2022-11-23T03:11:51.866Z,8.48
2022-11-23T03:14:19.742Z,9.07
2022-11-23T03:16:53.321Z,8.80
2022-11-23T03:19:21.579Z,8.60
2022-11-23T03:21:51.766Z,8.20
2022-11-23T03:24:19.618Z,8.80
2022-11-23T03:26:49.025Z,8.32
2022-11-23T03:29:20.788Z,8.02
2022-11-23T03:31:48.968Z,8.93
2022-11-23T03:34:20.496Z,8.70
2022-11-23T03:36:49.304Z,8.55
2022-11-23T03:39:17.391Z,8.25
2022-11-23T03:42:17.222Z,8.63
2022-11-23T03:44:46.614Z,8.10
2022-11-23T03:47:16.453Z,8.65
2022-11-23T03:49:46.426Z,8.20
2022-11-23T03:52:14.297Z,8.05
2022-11-23T03:54:44.723Z,8.32
2022-11-23T03:57:14.018Z,8.27
2022-11-23T03:59:41.920Z,8.02
2022-11-23T04:02:10.289Z,8.32
2022-11-23T04:04:48.625Z,8.45
2022-11-23T04:07:45.399Z,8.18
2022-11-23T04:10:13.397Z,8.20
2022-11-23T04:13:10.279Z,8.23
2022-11-23T04:15:38.265Z,8.45
2022-11-23T04:18:06.468Z,8.48
2022-11-23T04:20:35.871Z,8.00
2022-11-23T04:23:03.840Z,7.82
2022-11-23T04:25:32.086Z,7.90
2022-11-23T04:28:00.823Z,8.18
2022-11-23T04:30:28.697Z,8.13
2022-11-23T04:32:58.675Z,8.43
2022-11-23T04:35:27.740Z,7.90
2022-11-23T04:37:57.159Z,8.13
2022-11-23T04:40:27.961Z,7.45
2022-11-23T04:43:02.356Z,7.45
2022-11-23T04:45:33.778Z,8.15
2022-11-23T04:48:06.793Z,7.82
2022-11-23T04:50:39.856Z,7.60
2022-11-23T04:53:10.451Z,7.88
2022-11-23T04:55:43.858Z,8.18
2022-11-23T04:58:12.181Z,7.82
2022-11-23T05:00:40.839Z,7.68
2022-11-23T05:03:09.788Z,7.93
2022-11-23T05:05:40.743Z,7.82
2022-11-23T05:08:10.653Z,7.50
2022-11-23T05:11:07.525Z,7.53
2022-11-23T05:13:35.423Z,7.78
2022-11-23T05:16:04.513Z,7.30
2022-11-23T05:18:33.134Z,7.45
2022-11-23T05:21:00.990Z,7.70
2022-11-23T05:23:30.195Z,7.57
2022-11-23T05:25:59.394Z,7.25
2022-11-23T05:28:40.271Z,7.57
2022-11-23T05:31:09.727Z,7.28
2022-11-23T05:33:37.899Z,7.20
2022-11-23T05:36:07.630Z,7.25
2022-11-23T05:38:40.339Z,7.38
2022-11-23T05:41:14.076Z,7.32
2022-11-23T05:43:44.311Z,7.90
2022-11-23T05:46:17.150Z,7.15
2022-11-23T05:48:45.265Z,6.88
2022-11-23T05:51:14.101Z,6.88
2022-11-23T05:53:48.269Z,7.03
2022-11-23T05:56:21.380Z,7.03
2022-11-23T05:59:03.450Z,6.65
2022-11-23T06:01:33.061Z,6.65
2022-11-23T06:04:02.730Z,7.03
2022-11-23T06:06:36.362Z,6.80
2022-11-23T06:09:06.094Z,6.65
2022-11-23T06:11:36.318Z,6.97
2022-11-23T06:14:14.235Z,7.07
2022-11-23T06:16:44.773Z,6.65
2022-11-23T06:19:32.514Z,6.85
2022-11-23T06:22:00.514Z,6.65
2022-11-23T06:24:33.683Z,6.57
2022-11-23T06:27:27.469Z,7.10
2022-11-23T06:29:55.350Z,9.02
2022-11-23T06:32:25.513Z,10.80
2022-11-23T06:34:56.655Z,11.25
2022-11-23T06:37:27.690Z,10.48
2022-11-23T06:39:57.792Z,10.85
2022-11-23T06:42:42.336Z,10.75
2022-11-23T06:45:33.421Z,9.45
2022-11-23T06:48:06.781Z,10.23
2022-11-23T06:50:38.586Z,9.35
2022-11-23T06:53:06.480Z,9.57
2022-11-23T06:55:44.736Z,9.30
2022-11-23T06:58:16.134Z,8.05
2022-11-23T07:00:45.155Z,8.48
2022-11-23T07:03:19.429Z,8.02
2022-11-23T07:05:48.295Z,8.65
2022-11-23T07:08:16.501Z,8.50
2022-11-23T07:10:45.868Z,8.30
2022-11-23T07:13:16.707Z,8.73
2022-11-23T07:15:44.671Z,10.52
2022-11-23T07:18:13.469Z,10.50
2022-11-23T07:20:48.254Z,10.98
2022-11-23T07:23:16.191Z,10.45
2022-11-23T07:25:45.636Z,10.60
2022-11-23T07:28:13.663Z,10.50
2022-11-23T07:30:41.575Z,10.88
2022-11-23T07:33:11.087Z,10.88
2022-11-23T07:35:40.637Z,10.57
2022-11-23T07:38:09.499Z,9.82
2022-11-23T07:40:38.088Z,9.85
2022-11-23T07:43:07.821Z,9.88
2022-11-23T07:45:36.737Z,9.82
2022-11-23T07:48:08.276Z,9.52
2022-11-23T07:50:36.824Z,9.23
2022-11-23T07:53:04.927Z,9.73
2022-11-23T07:55:33.414Z,9.55
2022-11-23T07:58:01.316Z,9.02
2022-11-23T08:00:30.646Z,8.45
2022-11-23T08:03:26.163Z,8.90
2022-11-23T08:05:46.697Z,8.63
2022-11-23T08:08:14.536Z,8.00
2022-11-23T08:10:47.173Z,8.65
2022-11-23T08:13:17.836Z,8.32
2022-11-23T08:15:52.103Z,8.32
2022-11-23T08:18:22.256Z,7.82
2022-11-23T08:20:51.363Z,8.00
2022-11-23T08:23:19.236Z,7.78
2022-11-23T08:25:47.160Z,8.23
2022-11-23T08:28:15.644Z,8.05
2022-11-23T08:30:43.500Z,7.63
2022-11-23T08:33:12.864Z,7.25
2022-11-23T08:35:41.685Z,7.72
2022-11-23T08:38:10.289Z,7.00
2022-11-23T08:40:38.274Z,7.03
2022-11-23T08:43:06.319Z,7.38
2022-11-23T08:45:34.251Z,7.38
2022-11-23T08:48:02.227Z,6.85
2022-11-23T08:50:32.144Z,6.78
2022-11-23T08:53:00.470Z,7.00
2022-11-23T08:55:28.491Z,7.03
2022-11-23T08:57:56.705Z,7.40
2022-11-23T09:00:24.730Z,6.60
2022-11-23T09:02:52.653Z,6.13
2022-11-23T09:05:20.565Z,6.80
2022-11-23T09:07:49.846Z,8.18
2022-11-23T09:10:19.092Z,7.95
2022-11-23T09:12:47.363Z,7.63
2022-11-23T09:15:15.583Z,8.05
2022-11-23T09:17:43.549Z,7.82
2022-11-23T09:20:11.904Z,8.32
2022-11-23T09:22:39.852Z,7.50
2022-11-23T09:25:10.331Z,7.82
2022-11-23T09:27:38.394Z,7.78
2022-11-23T09:30:07.348Z,7.70
2022-11-23T09:32:35.257Z,7.68
2022-11-23T09:35:03.137Z,7.60
2022-11-23T09:37:31.158Z,7.40
2022-11-23T09:39:59.050Z,7.30
2022-11-23T09:42:43.969Z,6.90
2022-11-23T09:45:21.671Z,7.47
2022-11-23T09:48:09.775Z,6.70
2022-11-23T09:50:46.399Z,6.78
2022-11-23T09:53:16.488Z,6.50
2022-11-23T09:55:45.257Z,7.00
2022-11-23T09:58:16.543Z,6.28
2022-11-23T10:00:45.751Z,6.68
2022-11-23T10:03:16.012Z,6.80
2022-11-23T10:05:46.114Z,6.53
2022-11-23T10:08:17.932Z,6.60
2022-11-23T10:10:46.171Z,6.10
2022-11-23T10:13:27.397Z,6.65
2022-11-23T10:16:03.724Z,6.13
2022-11-23T10:18:35.316Z,5.95
2022-11-23T10:21:07.524Z,6.20
2022-11-23T10:23:48.124Z,6.28
2022-11-23T10:26:17.600Z,6.47
2022-11-23T10:28:46.977Z,6.00
2022-11-23T10:31:17.402Z,6.50
2022-11-23T10:33:54.144Z,5.93
2022-11-23T10:36:22.035Z,5.88
2022-11-23T10:38:51.711Z,5.95
2022-11-23T10:41:19.562Z,6.50
2022-11-23T10:43:52.004Z,6.22
2022-11-23T10:46:31.044Z,6.13
2022-11-23T10:49:10.947Z,6.05
2022-11-23T10:51:38.906Z,6.97
2022-11-23T10:54:07.860Z,6.13
2022-11-23T10:56:35.748Z,5.85
2022-11-23T10:59:05.011Z,6.10
2022-11-23T11:01:32.894Z,6.10
2022-11-23T11:04:03.486Z,5.85
2022-11-23T11:06:32.421Z,5.65
2022-11-23T11:09:03.676Z,5.80
2022-11-23T11:11:32.527Z,5.57
2022-11-23T11:14:06.172Z,5.75
2022-11-23T11:16:34.955Z,5.90
2022-11-23T11:19:21.604Z,5.80
2022-11-23T11:21:49.489Z,5.72
2022-11-23T11:24:18.741Z,5.82
2022-11-23T11:26:49.674Z,5.93
2022-11-23T11:29:33.944Z,5.45
2022-11-23T11:32:07.190Z,5.80
2022-11-23T11:34:37.541Z,5.55
2022-11-23T11:37:08.955Z,5.38
2022-11-23T11:39:39.929Z,5.32
2022-11-23T11:42:10.032Z,5.35
2022-11-23T11:44:39.389Z,5.63
2022-11-23T11:47:12.402Z,5.82
2022-11-23T11:49:42.797Z,6.10
2022-11-23T11:52:12.469Z,5.93
2022-11-23T11:54:43.609Z,5.78
2022-11-23T11:57:17.057Z,5.20
2022-11-23T11:59:47.085Z,5.47
2022-11-23T12:02:19.600Z,5.95
2022-11-23T12:04:51.665Z,5.70
2022-11-23T12:07:22.355Z,5.70
2022-11-23T12:09:52.976Z,6.05
2022-11-23T12:12:28.272Z,5.70
2022-11-23T12:14:59.053Z,5.78
2022-11-23T12:17:49.144Z,5.55
2022-11-23T12:20:20.803Z,5.43
2022-11-23T12:22:55.998Z,5.72
2022-11-23T12:25:28.604Z,5.85
2022-11-23T12:28:02.177Z,5.32
2022-11-23T12:30:35.119Z,5.40
2022-11-23T12:33:18.792Z,5.22
2022-11-23T12:35:49.563Z,5.95
2022-11-23T12:38:24.899Z,5.75
2022-11-23T12:41:05.110Z,5.70
2022-11-23T12:43:36.574Z,5.38
2022-11-23T12:46:12.707Z,5.32
2022-11-23T12:48:50.891Z,5.95
2022-11-23T12:51:24.084Z,5.90
2022-11-23T12:53:56.796Z,6.10
2022-11-23T12:56:32.168Z,5.53
2022-11-23T12:59:00.071Z,5.45
2022-11-23T13:01:32.137Z,5.53
2022-11-23T13:04:38.890Z,5.53
2022-11-23T13:07:48.896Z,6.05
2022-11-23T13:10:41.565Z,5.55
2022-11-23T13:13:25.940Z,5.80
2022-11-23T13:16:04.577Z,5.68
2022-11-23T13:18:42.905Z,6.38
2022-11-23T13:21:17.798Z,6.38
2022-11-23T13:23:45.748Z,5.82
2022-11-23T13:26:15.239Z,5.78
2022-11-23T13:28:43.434Z,5.97
2022-11-23T13:31:23.669Z,6.32
2022-11-23T13:33:55.208Z,6.15
2022-11-23T13:37:11.270Z,5.85
2022-11-23T13:40:03.558Z,5.63
2022-11-23T13:42:32.929Z,5.32
2022-11-23T13:45:31.428Z,5.57
2022-11-23T13:48:48.770Z,5.75
2022-11-23T13:51:09.227Z,6.15
2022-11-23T13:53:37.781Z,5.68
2022-11-23T13:56:31.245Z,5.97
2022-11-23T13:59:00.164Z,5.75
2022-11-23T14:02:00.212Z,6.20
2022-11-23T14:04:28.375Z,6.22
2022-11-23T14:06:58.320Z,5.90
2022-11-23T14:09:28.776Z,6.10
2022-11-23T14:12:03.248Z,5.75
2022-11-23T14:14:36.882Z,6.18
2022-11-23T14:17:24.747Z,6.88
2022-11-23T14:20:09.934Z,5.95
2022-11-23T14:22:43.809Z,5.72
2022-11-23T14:25:22.401Z,5.70
2022-11-23T14:27:54.663Z,5.80
2022-11-23T14:30:34.373Z,5.72
2022-11-23T14:33:12.426Z,5.82
2022-11-23T14:35:44.643Z,6.38
2022-11-23T14:38:46.734Z,6.30
2022-11-23T14:41:17.744Z,6.18
2022-11-23T14:43:45.971Z,6.38
2022-11-23T14:46:16.163Z,6.25
2022-11-23T14:48:44.206Z,6.05
2022-11-23T14:51:13.272Z,6.10
2022-11-23T14:53:46.648Z,6.20
2022-11-23T14:56:23.893Z,6.35
2022-11-23T14:58:51.944Z,6.28
2022-11-23T15:01:21.510Z,6.13
2022-11-23T15:03:57.429Z,6.00
2022-11-23T15:06:26.743Z,6.10
2022-11-23T15:08:58.826Z,6.22
2022-11-23T15:11:28.666Z,6.00
2022-11-23T15:13:58.119Z,6.30
2022-11-23T15:16:26.908Z,6.45
2022-11-23T15:18:54.869Z,6.35
2022-11-23T15:21:27.194Z,6.25
2022-11-23T15:23:57.109Z,6.50
2022-11-23T15:26:48.674Z,6.65
2022-11-23T15:29:30.324Z,6.30
2022-11-23T15:34:46.702Z,6.82
2022-11-23T15:37:14.613Z,7.05
2022-11-23T15:39:42.511Z,6.63
2022-11-23T15:42:11.851Z,6.55
2022-11-23T15:44:39.722Z,7.03
2022-11-23T15:47:07.874Z,6.72
2022-11-23T15:49:37.964Z,6.85
2022-11-23T15:52:06.039Z,6.60
2022-11-23T15:54:36.059Z,6.45
2022-11-23T15:57:04.202Z,6.82
2022-11-23T15:59:36.161Z,7.07
2022-11-23T16:02:06.940Z,7.18
2022-11-23T16:04:37.501Z,6.97
2022-11-23T16:07:16.216Z,6.70
2022-11-23T16:09:53.119Z,6.80
2022-11-23T16:12:26.778Z,7.03
2022-11-23T16:14:57.210Z,7.00
2022-11-23T16:17:25.691Z,7.45
2022-11-23T16:19:54.157Z,7.30
2022-11-23T16:22:25.370Z,7.32
2022-11-23T16:25:01.503Z,7.43
2022-11-23T16:27:29.362Z,7.60
2022-11-23T16:30:02.947Z,7.50
2022-11-23T16:32:32.205Z,7.45
2022-11-23T16:35:05.880Z,7.45
2022-11-23T16:37:33.746Z,7.72
2022-11-23T16:40:01.618Z,7.75
2022-11-23T16:42:29.608Z,7.50
2022-11-23T16:44:59.313Z,7.40
2022-11-23T16:47:27.407Z,7.70
2022-11-23T16:49:55.499Z,8.02
2022-11-23T16:52:24.146Z,7.90
2022-11-23T16:54:52.594Z,8.20
2022-11-23T16:57:29.747Z,7.82
2022-11-23T16:59:58.993Z,7.72
2022-11-23T17:02:26.877Z,7.85
2022-11-23T17:04:55.037Z,8.05
2022-11-23T17:07:23.022Z,8.25
2022-11-23T17:09:50.904Z,8.60
2022-11-23T17:12:19.538Z,8.88
2022-11-23T17:14:48.467Z,8.73
2022-11-23T17:17:20.312Z,8.35
2022-11-23T17:19:49.661Z,9.10
2022-11-23T17:22:18.368Z,8.35
2022-11-23T17:24:46.294Z,8.60
2022-11-23T17:27:15.075Z,9.30
2022-11-23T17:29:43.387Z,8.65
2022-11-23T17:32:12.002Z,9.10
2022-11-23T17:34:41.447Z,8.57
2022-11-23T17:37:11.626Z,8.80
2022-11-23T17:39:39.554Z,9.30
2022-11-23T17:42:07.411Z,8.75
2022-11-23T17:44:35.257Z,8.80
2022-11-23T17:47:03.311Z,8.98
2022-11-23T17:49:33.240Z,8.35
2022-11-23T17:52:02.609Z,8.90
2022-11-23T17:54:30.536Z,8.68
2022-11-23T17:56:58.748Z,9.25
2022-11-23T17:59:27.104Z,8.70
2022-11-23T18:01:55.092Z,9.23
2022-11-23T18:04:23.021Z,8.55
2022-11-23T18:06:50.926Z,9.10
2022-11-23T18:09:20.105Z,8.75
2022-11-23T18:11:49.204Z,8.45
2022-11-23T18:14:18.053Z,8.95
2022-11-23T18:16:45.952Z,8.75
2022-11-23T18:19:14.973Z,8.50
2022-11-23T18:21:42.867Z,8.80
2022-11-23T18:24:10.721Z,9.40
2022-11-23T18:26:39.910Z,9.23
2022-11-23T18:29:09.030Z,9.05
2022-11-23T18:31:39.778Z,9.20
2022-11-23T18:34:07.963Z,8.75
2022-11-23T18:36:36.699Z,9.25
2022-11-23T18:39:07.939Z,8.90
2022-11-23T18:41:35.786Z,8.93
2022-11-23T18:44:05.226Z,8.65
2022-11-23T18:46:33.429Z,9.45
2022-11-23T18:49:01.410Z,9.10
2022-11-23T18:51:29.322Z,9.57
2022-11-23T18:53:57.816Z,8.93
2022-11-23T18:56:25.899Z,9.20
2022-11-23T18:58:53.761Z,9.05
2022-11-23T19:01:23.624Z,9.50
2022-11-23T19:03:53.104Z,9.77
2022-11-23T19:06:22.298Z,9.43
2022-11-23T19:08:51.285Z,9.35
2022-11-23T19:11:20.197Z,8.80
2022-11-23T19:13:49.017Z,9.50
2022-11-23T19:16:17.851Z,9.57
2022-11-23T19:18:47.144Z,9.10
2022-11-23T19:21:16.229Z,9.40
2022-11-23T19:23:44.117Z,9.60
2022-11-23T19:26:12.079Z,9.85
2022-11-23T19:28:44.468Z,9.93
2022-11-23T19:31:13.163Z,9.73
2022-11-23T19:33:41.158Z,9.68
2022-11-23T19:36:11.588Z,9.30
2022-11-23T19:38:39.650Z,9.43
2022-11-23T19:41:07.600Z,9.43
2022-11-23T19:43:35.560Z,8.80
2022-11-23T19:46:05.312Z,9.25
2022-11-23T19:48:33.987Z,9.32
2022-11-23T19:51:03.084Z,9.07
2022-11-23T19:53:33.169Z,9.63
2022-11-23T19:56:03.962Z,10.07
2022-11-23T19:58:32.427Z,9.45
2022-11-23T20:01:01.193Z,9.93
2022-11-23T20:03:29.143Z,9.13
2022-11-23T20:05:58.096Z,10.05
2022-11-23T20:08:26.017Z,9.60
2022-11-23T20:10:55.248Z,9.23
2022-11-23T20:13:23.208Z,9.27
2022-11-23T20:15:51.420Z,9.88
2022-11-23T20:18:19.429Z,9.30
2022-11-23T20:20:48.270Z,9.32
2022-11-23T20:23:16.198Z,9.50
2022-11-23T20:25:44.236Z,9.23
2022-11-23T20:28:14.527Z,9.85
2022-11-23T20:30:43.058Z,9.52
2022-11-23T20:33:11.175Z,8.77
2022-11-23T20:35:39.195Z,10.35
2022-11-23T20:38:07.197Z,9.18
2022-11-23T20:40:35.121Z,9.38
2022-11-23T20:43:03.008Z,9.77
2022-11-23T20:45:32.258Z,9.32
2022-11-23T20:48:00.257Z,9.95
2022-11-23T20:50:28.937Z,9.20
2022-11-23T20:53:01.608Z,9.35
2022-11-23T20:55:29.662Z,9.95
2022-11-23T20:57:57.582Z,9.25
2022-11-23T21:00:25.442Z,9.20
2022-11-23T21:02:55.733Z,9.90
2022-11-23T21:05:23.744Z,9.75
2022-11-23T21:07:51.979Z,9.52
2022-11-23T21:10:37.412Z,9.55
2022-11-23T21:13:22.889Z,9.15
2022-11-23T21:15:51.113Z,9.50
2022-11-23T21:18:20.554Z,9.45
2022-11-23T21:20:48.508Z,9.32
2022-11-23T21:23:16.422Z,8.75
2022-11-23T21:25:44.780Z,9.43
2022-11-23T21:28:12.761Z,9.20
2022-11-23T21:30:42.130Z,8.77
2022-11-23T21:33:10.480Z,9.30
2022-11-23T21:35:39.779Z,9.10
2022-11-23T21:38:07.685Z,9.43
2022-11-23T21:40:35.624Z,9.50
2022-11-23T21:43:03.645Z,9.27
2022-11-23T21:45:31.607Z,9.50
2022-11-23T21:47:59.638Z,9.07
2022-11-23T21:50:27.686Z,9.35
2022-11-23T21:52:56.934Z,9.10
2022-11-23T21:55:24.862Z,8.95
2022-11-23T21:57:52.901Z,8.60
2022-11-23T22:00:28.412Z,8.75
2022-11-23T22:02:59.832Z,8.95
2022-11-23T22:05:27.789Z,9.18
2022-11-23T22:08:27.677Z,9.23
2022-11-23T22:10:45.144Z,9.02
2022-11-23T22:13:13.202Z,8.95
2022-11-23T22:15:41.205Z,9.32
2022-11-23T22:18:09.342Z,9.27
2022-11-23T22:20:37.536Z,9.23
2022-11-23T22:23:07.000Z,9.40
2022-11-23T22:25:35.011Z,9.20
2022-11-23T22:28:03.004Z,9.13
2022-11-23T22:30:30.990Z,9.15
2022-11-23T22:32:59.053Z,8.85
2022-11-23T22:35:27.068Z,8.55
2022-11-23T22:37:56.103Z,9.02
2022-11-23T22:40:26.860Z,9.10
2022-11-23T22:42:54.995Z,9.15
2022-11-23T22:45:23.076Z,9.38
2022-11-23T22:47:51.082Z,9.50
2022-11-23T22:50:19.228Z,10.05
2022-11-23T22:52:48.126Z,9.45
2022-11-23T22:55:16.363Z,9.27
2022-11-23T22:57:45.709Z,8.93
2022-11-23T23:00:14.484Z,8.73
2022-11-23T23:02:42.640Z,8.90
2022-11-23T23:05:10.931Z,8.40
2022-11-23T23:07:39.129Z,9.05
2022-11-23T23:10:08.098Z,8.60
2022-11-23T23:12:36.094Z,8.45
2022-11-23T23:15:05.952Z,8.65
2022-11-23T23:17:33.923Z,8.40
2022-11-23T23:20:01.874Z,8.60
2022-11-23T23:22:29.897Z,8.00
2022-11-23T23:24:57.950Z,8.10
2022-11-23T23:27:26.007Z,8.20
2022-11-23T23:29:53.965Z,8.55
2022-11-23T23:32:23.304Z,8.45
2022-11-23T23:34:51.311Z,7.93
2022-11-23T23:37:20.230Z,7.70
2022-11-23T23:39:48.184Z,8.23
2022-11-23T23:42:16.206Z,8.60
2022-11-23T23:44:44.371Z,7.90
2022-11-23T23:47:12.344Z,8.15
2022-11-23T23:49:41.658Z,7.90
2022-11-23T23:52:09.811Z,8.10
2022-11-23T23:54:37.798Z,7.80
2022-11-23T23:57:05.960Z,7.63
2022-11-23T23:59:33.968Z,7.88
